Time;durP1;ratioP1;P1;durP2;ratioP2;P2;SDS_P1;SDS_P2;PMS_P1;PMS_P2;Temp;Humidity;BMP_temperature;BMP_pressure;BME280_temperature;BME280_humidity;BME280_pressure;Samples;Min_cycle;Max_cycle;Signal;HPM_P1;HPM_P2
2023/03/18 00:00:26;;;;;;;;;;;;;;;0.78;100.00;101127.34;5112102;28;20301;-65
2023/03/18 00:02:52;;;;;;;;;;;;;;;1.02;100.00;101127.69;5112606;28;19915;-68
2023/03/18 00:05:18;;;;;;;;;;;;;;;0.88;100.00;101123.97;5112234;28;20349;-69
2023/03/18 00:07:45;;;;;;;;;;;;;;;0.95;100.00;101120.31;5112576;28;19927;-65
2023/03/18 00:10:11;;;;;;;;;;;;;;;0.71;100.00;101119.97;5112177;28;19915;-67
2023/03/18 00:12:37;;;;;;;;;;;;;;;0.80;100.00;101118.22;5112043;28;19911;-64
2023/03/18 00:15:05;;;;;;;;;;;;;;;1.06;100.00;101122.13;5112135;28;19918;-69
2023/03/18 00:17:30;;;;;;;;;;;;;;;1.37;100.00;101117.09;5112255;28;19916;-69
2023/03/18 00:19:55;;;;;;;;;;;;;;;1.37;100.00;101116.19;5112181;28;19981;-68
2023/03/18 00:22:21;;;;;;;;;;;;;;;1.26;100.00;101115.31;5112164;28;19959;-69
2023/03/18 00:24:50;;;;;;;;;;;;;;;1.23;100.00;101123.53;5094279;28;20339;-68
2023/03/18 00:27:15;;;;;;;;;;;;;;;1.03;100.00;101113.34;5112539;28;19907;-66
2023/03/18 00:29:40;;;;;;;;;;;;;;;0.44;100.00;101113.38;5111519;28;20354;-65
2023/03/18 00:32:06;;;;;;;;;;;;;;;0.22;100.00;101116.53;5111705;28;20639;-68
2023/03/18 00:34:32;;;;;;;;;;;;;;;0.25;100.00;101118.47;5111878;28;19968;-65
2023/03/18 00:36:57;;;;;;;;;;;;;;;0.18;100.00;101106.00;5111923;28;20389;-65
2023/03/18 00:39:27;;;;;;;;;;;;;;;0.34;100.00;101104.06;5111905;28;20056;-67
2023/03/18 00:41:56;;;;;;;;;;;;;;;0.60;100.00;101100.38;5111741;28;19915;-65
2023/03/18 00:44:24;;;;;;;;;;;;;;;0.76;100.00;101093.31;5111416;28;20010;-71
2023/03/18 00:46:49;;;;;;;;;;;;;;;0.89;100.00;101094.38;5111542;28;20308;-68
2023/03/18 00:49:16;;;;;;;;;;;;;;;1.04;100.00;101095.66;5111524;28;19963;-68
2023/03/18 00:51:41;;;;;;;;;;;;;;;1.12;100.00;101102.31;5111574;28;19968;-72
2023/03/18 00:54:08;;;;;;;;;;;;;;;1.14;100.00;101092.25;5111609;28;19911;-65
2023/03/18 00:56:35;;;;;;;;;;;;;;;1.24;100.00;101087.16;5111225;28;20450;-69
2023/03/18 00:59:01;;;;;;;;;;;;;;;1.34;100.00;101086.28;5111115;28;20411;-69
2023/03/18 01:01:27;;;;;;;;;;;;;;;1.24;100.00;101082.06;5111644;28;19918;-66
2023/03/18 01:03:53;;;;;;;;;;;;;;;1.18;100.00;101083.22;5111451;28;19912;-66
2023/03/18 01:06:21;;;;;;;;;;;;;;;1.21;100.00;101076.75;5111285;28;20343;-69
2023/03/18 01:08:47;;;;;;;;;;;;;;;1.36;100.00;101076.25;5111341;28;19919;-68
2023/03/18 01:11:12;;;;;;;;;;;;;;;1.36;100.00;101074.59;5111242;28;19912;-66
2023/03/18 01:13:38;;;;;;;;;;;;;;;1.47;100.00;101074.59;5111187;28;19912;-69
2023/03/18 01:16:04;;;;;;;;;;;;;;;1.66;100.00;101075.38;5111040;28;19938;-65
2023/03/18 01:18:29;;;;;;;;;;;;;;;1.55;100.00;101033.75;5111403;28;20018;-68
2023/03/18 01:20:56;;;;;;;;;;;;;;;1.86;100.00;101071.03;5114673;28;20023;-69
2023/03/18 01:23:21;;;;;;;;;;;;;;;1.70;100.00;101066.31;5117979;28;19911;-68
2023/03/18 01:25:46;;;;;;;;;;;;;;;1.15;100.00;101070.25;5117716;28;19919;-68
2023/03/18 01:28:12;;;;;;;;;;;;;;;1.04;100.00;101066.81;5118041;28;20409;-68
2023/03/18 01:30:38;;;;;;;;;;;;;;;0.77;100.00;101053.53;5111276;28;19916;-67
2023/03/18 01:33:04;;;;;;;;;;;;;;;0.61;100.00;101058.94;5105517;28;19996;-67
2023/03/18 01:35:30;;;;;;;;;;;;;;;0.47;100.00;101063.72;5097679;28;19919;-68
2023/03/18 01:37:56;;;;;;;;;;;;;;;0.46;100.00;101067.03;5097770;28;19916;-68
2023/03/18 01:40:22;;;;;;;;;;;;;;;0.33;100.00;101061.63;5097355;28;19916;-69
2023/03/18 01:42:52;;;;;;;;;;;;;;;0.20;100.00;101061.31;5097489;28;20011;-69
2023/03/18 01:45:24;;;;;;;;;;;;;;;0.19;100.00;101055.34;5097420;28;20364;-68
2023/03/18 01:47:50;;;;;;;;;;;;;;;0.12;100.00;101050.47;5097613;28;20007;-64
2023/03/18 01:50:21;;;;;;;;;;;;;;;-0.04;100.00;101055.84;5097277;28;20002;-66
2023/03/18 01:52:48;;;;;;;;;;;;;;;-0.19;100.00;101060.44;5097320;28;19918;-66
2023/03/18 01:55:16;;;;;;;;;;;;;;;-0.16;100.00;101055.66;5097032;28;19965;-63
2023/03/18 01:57:42;;;;;;;;;;;;;;;0.01;100.00;101058.78;5097563;28;19922;-67
2023/03/18 02:00:09;;;;;;;;;;;;;;;-0.08;100.00;101059.75;5097290;28;19911;-68
2023/03/18 02:02:37;;;;;;;;;;;;;;;-0.28;100.00;101057.09;5079073;28;20022;-67
2023/03/18 02:05:05;;;;;;;;;;;;;;;-0.37;100.00;101068.19;5097223;28;19985;-69
2023/03/18 02:07:33;;;;;;;;;;;;;;;-0.28;100.00;101067.25;5096815;28;19978;-63
2023/03/18 02:09:59;;;;;;;;;;;;;;;-0.41;100.00;101065.22;5097310;28;19919;-68
2023/03/18 02:12:28;;;;;;;;;;;;;;;-0.46;100.00;101062.31;5097156;28;19915;-66
2023/03/18 02:14:54;;;;;;;;;;;;;;;-0.51;100.00;101059.34;5077986;28;20367;-66
2023/03/18 02:17:23;;;;;;;;;;;;;;;-0.56;100.00;101068.19;5097732;28;19911;-68
2023/03/18 02:19:57;;;;;;;;;;;;;;;-0.67;100.00;101068.84;5096964;28;19912;-69
2023/03/18 02:22:27;;;;;;;;;;;;;;;-0.79;100.00;101062.66;5096900;28;20389;-71
2023/03/18 02:25:11;;;;;;;;;;;;;;;-0.66;100.00;101065.56;5096856;28;19920;-68
2023/03/18 02:27:39;;;;;;;;;;;;;;;-0.54;100.00;101060.69;5097224;28;19965;-68
2023/03/18 02:30:25;;;;;;;;;;;;;;;-0.39;100.00;101059.53;5097052;28;19908;-67
2023/03/18 02:32:51;;;;;;;;;;;;;;;-0.57;100.00;101062.97;5093537;28;19911;-63
2023/03/18 02:35:17;;;;;;;;;;;;;;;-0.59;100.00;101059.41;5093704;28;19961;-67
2023/03/18 02:37:42;;;;;;;;;;;;;;;-0.53;100.00;101062.50;5093858;28;20355;-64
2023/03/18 02:40:12;;;;;;;;;;;;;;;-0.26;100.00;101059.03;5093910;28;19912;-67
2023/03/18 02:42:37;;;;;;;;;;;;;;;-0.17;100.00;101064.91;5093620;28;19912;-64
2023/03/18 02:45:03;;;;;;;;;;;;;;;-0.14;100.00;101061.75;5093390;28;19919;-68
2023/03/18 02:47:30;;;;;;;;;;;;;;;-0.15;100.00;101062.50;5093659;28;19924;-68
2023/03/18 02:49:55;;;;;;;;;;;;;;;-0.26;100.00;101064.09;5093312;28;20388;-68
2023/03/18 02:52:21;;;;;;;;;;;;;;;-0.25;100.00;101059.91;5093288;28;19912;-68
2023/03/18 02:54:46;;;;;;;;;;;;;;;-0.27;100.00;101066.50;5093238;28;19915;-67
2023/03/18 02:57:11;;;;;;;;;;;;;;;-0.38;100.00;101063.00;5093583;28;19912;-68
2023/03/18 02:59:36;;;;;;;;;;;;;;;-0.37;100.00;101064.78;5093058;28;19912;-67
2023/03/18 03:02:02;;;;;;;;;;;;;;;-0.39;100.00;101067.16;5093435;28;20368;-68
2023/03/18 03:04:28;;;;;;;;;;;;;;;-0.37;100.00;101060.56;5093290;28;19956;-67
2023/03/18 03:06:53;;;;;;;;;;;;;;;-0.35;100.00;101065.78;5093374;28;19938;-68
2023/03/18 03:09:20;;;;;;;;;;;;;;;-0.45;100.00;101063.19;5093117;28;19926;-68
2023/03/18 03:11:46;;;;;;;;;;;;;;;-0.59;100.00;101067.88;5093230;28;19920;-65
2023/03/18 03:14:13;;;;;;;;;;;;;;;-0.72;100.00;101072.63;5093030;28;19916;-68
2023/03/18 03:16:38;;;;;;;;;;;;;;;-0.87;100.00;101072.97;5092898;28;19912;-64
2023/03/18 03:19:04;;;;;;;;;;;;;;;-0.76;100.00;101073.97;5092984;28;19908;-72
2023/03/18 03:21:31;;;;;;;;;;;;;;;-0.81;100.00;101067.56;5093129;28;19984;-65
2023/03/18 03:23:57;;;;;;;;;;;;;;;-0.73;100.00;101069.16;5093011;28;19919;-65
2023/03/18 03:26:22;;;;;;;;;;;;;;;-0.65;100.00;101072.41;5093297;28;19932;-68
2023/03/18 03:28:47;;;;;;;;;;;;;;;-0.56;100.00;101069.81;5092494;28;19912;-69
2023/03/18 03:31:13;;;;;;;;;;;;;;;-0.44;100.00;101068.38;5092849;28;20297;-68
2023/03/18 03:33:42;;;;;;;;;;;;;;;-0.42;100.00;101068.53;5092920;28;19912;-65
2023/03/18 03:36:09;;;;;;;;;;;;;;;-0.37;100.00;101064.78;5092526;28;19920;-68
2023/03/18 03:38:34;;;;;;;;;;;;;;;-0.40;100.00;101069.56;5092843;28;19912;-65
2023/03/18 03:41:01;;;;;;;;;;;;;;;-0.36;100.00;101075.06;5092854;28;19912;-68
2023/03/18 03:43:26;;;;;;;;;;;;;;;-0.41;100.00;101067.78;5092242;28;20006;-65
2023/03/18 03:45:52;;;;;;;;;;;;;;;-0.43;100.00;101076.91;5092551;28;20010;-67
2023/03/18 03:48:17;;;;;;;;;;;;;;;-0.52;100.00;101079.50;5091143;28;20423;-65
2023/03/18 03:50:42;;;;;;;;;;;;;;;-0.61;100.00;101077.03;5092404;28;19944;-69
2023/03/18 03:53:09;;;;;;;;;;;;;;;-0.48;100.00;101073.06;5092590;28;19912;-66
2023/03/18 03:55:34;;;;;;;;;;;;;;;-0.43;100.00;101079.44;5092074;28;20301;-65
2023/03/18 03:57:59;;;;;;;;;;;;;;;-0.46;100.00;101074.97;5091881;28;19912;-70
2023/03/18 04:00:25;;;;;;;;;;;;;;;-0.55;100.00;101074.13;5092381;28;19962;-69
2023/03/18 04:02:51;;;;;;;;;;;;;;;-0.45;100.00;101073.31;5092579;28;20346;-68
2023/03/18 04:05:18;;;;;;;;;;;;;;;-0.41;100.00;101066.13;5092566;28;19916;-66
2023/03/18 04:07:44;;;;;;;;;;;;;;;-0.42;100.00;101071.09;5096002;28;19915;-65
2023/03/18 04:10:12;;;;;;;;;;;;;;;-0.44;100.00;101067.50;5112596;28;19923;-68
2023/03/18 04:12:37;;;;;;;;;;;;;;;-0.42;100.00;101068.53;5112189;28;19912;-65
2023/03/18 04:15:06;;;;;;;;;;;;;;;-0.33;100.00;101071.91;5112340;28;19918;-68
2023/03/18 04:17:32;;;;;;;;;;;;;;;-0.29;100.00;101068.88;5111975;28;20328;-68
2023/03/18 04:19:58;;;;;;;;;;;;;;;-0.31;100.00;101074.56;5112009;28;19912;-68
2023/03/18 04:22:23;;;;;;;;;;;;;;;-0.34;100.00;101072.66;5112126;28;19911;-68
2023/03/18 04:24:48;;;;;;;;;;;;;;;-0.40;100.00;101075.53;5112079;28;19935;-67
2023/03/18 04:27:14;;;;;;;;;;;;;;;-0.37;100.00;101069.84;5112070;28;20404;-66
2023/03/18 04:29:40;;;;;;;;;;;;;;;-0.38;100.00;101063.88;5112022;28;19912;-67
2023/03/18 04:32:06;;;;;;;;;;;;;;;-0.36;100.00;101069.97;5111801;28;20018;-69
2023/03/18 04:34:32;;;;;;;;;;;;;;;-0.30;100.00;101063.66;5111780;28;19916;-67
2023/03/18 04:36:57;;;;;;;;;;;;;;;-0.23;100.00;101068.56;5111829;28;19953;-66
2023/03/18 04:39:22;;;;;;;;;;;;;;;-0.19;100.00;101076.59;5111718;28;19908;-67
2023/03/18 04:41:48;;;;;;;;;;;;;;;-0.23;100.00;101074.50;5111514;28;19935;-67
2023/03/18 04:44:13;;;;;;;;;;;;;;;-0.25;100.00;101072.59;5111858;28;19946;-65
2023/03/18 04:46:38;;;;;;;;;;;;;;;-0.31;100.00;101072.03;5111995;28;19954;-65
2023/03/18 04:49:04;;;;;;;;;;;;;;;-0.25;100.00;101075.13;5111472;28;19907;-68
2023/03/18 04:51:29;;;;;;;;;;;;;;;-0.14;100.00;101084.59;5101626;28;19968;-68
2023/03/18 04:53:54;;;;;;;;;;;;;;;-0.11;100.00;101089.03;5107638;28;19934;-68
2023/03/18 04:56:21;;;;;;;;;;;;;;;-0.15;100.00;101079.38;5110380;28;20382;-67
2023/03/18 04:58:46;;;;;;;;;;;;;;;-0.13;100.00;101081.28;5111437;28;19911;-64
2023/03/18 05:01:12;;;;;;;;;;;;;;;-0.03;100.00;101078.81;5111321;28;19957;-71
2023/03/18 05:03:41;;;;;;;;;;;;;;;-0.10;100.00;101081.59;5111310;28;19922;-65
2023/03/18 05:06:07;;;;;;;;;;;;;;;-0.12;100.00;101080.53;5111649;28;19914;-67
2023/03/18 05:08:33;;;;;;;;;;;;;;;-0.08;100.00;101082.59;5111416;28;19916;-67
2023/03/18 05:10:58;;;;;;;;;;;;;;;-0.06;100.00;101088.72;5113890;28;19927;-68
2023/03/18 05:13:24;;;;;;;;;;;;;;;-0.11;100.00;101089.03;5119474;28;19915;-68
2023/03/18 05:15:49;;;;;;;;;;;;;;;-0.09;100.00;101088.41;5119080;27;19915;-68
2023/03/18 05:18:15;;;;;;;;;;;;;;;-0.05;100.00;101087.97;5075039;28;20435;-69
2023/03/18 05:20:40;;;;;;;;;;;;;;;-0.04;100.00;101092.28;5111155;28;19919;-66
2023/03/18 05:23:05;;;;;;;;;;;;;;;0.04;100.00;101085.34;5111158;28;19912;-66
2023/03/18 05:25:31;;;;;;;;;;;;;;;0.18;100.00;101090.78;5113968;28;19916;-65
2023/03/18 05:27:56;;;;;;;;;;;;;;;0.16;100.00;101090.59;5132107;28;20296;-67
2023/03/18 05:30:22;;;;;;;;;;;;;;;0.20;100.00;101091.78;5131891;28;20297;-66
2023/03/18 05:32:47;;;;;;;;;;;;;;;0.27;100.00;101089.91;5116807;28;20388;-67
2023/03/18 05:35:12;;;;;;;;;;;;;;;0.35;100.00;101089.69;5111381;28;19912;-69
2023/03/18 05:37:38;;;;;;;;;;;;;;;0.44;100.00;101093.06;5121150;28;19912;-68
2023/03/18 05:40:08;;;;;;;;;;;;;;;0.50;100.00;101091.06;5121359;28;19918;-66
2023/03/18 05:42:34;;;;;;;;;;;;;;;0.63;100.00;101090.47;5125837;28;19915;-68
2023/03/18 05:44:59;;;;;;;;;;;;;;;0.76;100.00;101097.47;5131476;28;20008;-65
2023/03/18 05:47:24;;;;;;;;;;;;;;;0.85;100.00;101087.22;5131736;28;19907;-65
2023/03/18 05:49:50;;;;;;;;;;;;;;;0.99;100.00;101096.94;5131549;28;19922;-67
2023/03/18 05:52:18;;;;;;;;;;;;;;;1.17;100.00;101091.63;5096390;28;19911;-65
2023/03/18 05:54:43;;;;;;;;;;;;;;;1.36;100.00;101100.03;5131599;28;19919;-68
2023/03/18 05:57:09;;;;;;;;;;;;;;;1.51;100.00;101099.53;5131645;28;19995;-65
2023/03/18 05:59:34;;;;;;;;;;;;;;;1.52;100.00;101101.31;5123701;28;20479;-67
2023/03/18 06:02:00;;;;;;;;;;;;;;;1.65;100.00;101098.16;5096794;28;19923;-70
2023/03/18 06:04:26;;;;;;;;;;;;;;;1.92;100.00;101094.44;5111350;28;19911;-69
2023/03/18 06:06:51;;;;;;;;;;;;;;;2.10;100.00;101085.72;5111737;28;20380;-69
2023/03/18 06:09:17;;;;;;;;;;;;;;;2.31;100.00;101093.31;5114285;28;19969;-66
2023/03/18 06:11:43;;;;;;;;;;;;;;;2.39;100.00;101088.81;5104106;28;19920;-68
2023/03/18 06:14:08;;;;;;;;;;;;;;;2.57;100.00;101090.28;5094638;28;21151;-68
2023/03/18 06:16:35;;;;;;;;;;;;;;;2.67;100.00;101099.56;5097056;28;19912;-71
2023/03/18 06:19:02;;;;;;;;;;;;;;;2.49;100.00;101093.88;5093133;28;20366;-71
2023/03/18 06:21:27;;;;;;;;;;;;;;;2.46;100.00;101093.66;5107038;28;19915;-69
2023/03/18 06:23:53;;;;;;;;;;;;;;;2.47;100.00;101099.63;5114000;28;19915;-70
2023/03/18 06:26:18;;;;;;;;;;;;;;;2.75;100.00;101102.69;5114551;27;20373;-70
2023/03/18 06:28:44;;;;;;;;;;;;;;;2.75;100.00;101102.69;5114527;28;20006;-72
2023/03/18 06:31:10;;;;;;;;;;;;;;;2.89;100.00;101099.59;5114502;28;19912;-68
2023/03/18 06:33:35;;;;;;;;;;;;;;;2.94;100.00;101104.16;5114199;28;20369;-67
2023/03/18 06:36:01;;;;;;;;;;;;;;;3.05;100.00;101095.66;5114250;28;20372;-68
2023/03/18 06:38:27;;;;;;;;;;;;;;;3.20;100.00;101096.84;5113803;28;19949;-71
2023/03/18 06:40:53;;;;;;;;;;;;;;;3.15;100.00;101104.91;5114337;28;19912;-67
2023/03/18 06:43:18;;;;;;;;;;;;;;;3.15;100.00;101099.81;5114571;28;19969;-67
2023/03/18 06:45:44;;;;;;;;;;;;;;;2.95;100.00;101099.16;5113178;28;20361;-70
2023/03/18 06:48:09;;;;;;;;;;;;;;;3.07;100.00;101100.09;5113867;28;20389;-68
2023/03/18 06:50:35;;;;;;;;;;;;;;;3.24;100.00;101101.41;5114157;28;20275;-68
2023/03/18 06:53:01;;;;;;;;;;;;;;;3.40;100.00;101106.03;5113443;28;19912;-69
2023/03/18 06:55:27;;;;;;;;;;;;;;;3.58;100.00;101103.09;5113705;28;20301;-69
2023/03/18 06:57:52;;;;;;;;;;;;;;;3.61;100.00;101108.41;5113896;28;19911;-70
2023/03/18 07:00:18;;;;;;;;;;;;;;;3.69;100.00;101107.31;5113814;28;20018;-71
2023/03/18 07:02:44;;;;;;;;;;;;;;;3.79;100.00;101110.56;5113574;28;20428;-72
2023/03/18 07:05:11;;;;;;;;;;;;;;;3.88;100.00;101111.25;5113584;28;19966;-70
2023/03/18 07:07:37;;;;;;;;;;;;;;;3.95;100.00;101108.38;5113065;28;19915;-71
2023/03/18 07:10:05;;;;;;;;;;;;;;;4.02;100.00;101110.59;5113307;28;20301;-68
2023/03/18 07:12:30;;;;;;;;;;;;;;;4.05;100.00;101099.75;5113294;28;19919;-71
2023/03/18 07:14:56;;;;;;;;;;;;;;;4.12;100.00;101103.63;5112172;28;19912;-70
2023/03/18 07:17:21;;;;;;;;;;;;;;;4.16;100.00;101103.06;5113542;28;20367;-71
2023/03/18 07:19:47;;;;;;;;;;;;;;;4.15;100.00;101101.28;5112508;28;19911;-70
2023/03/18 07:22:14;;;;;;;;;;;;;;;4.32;100.00;101103.38;5112984;28;19912;-71
2023/03/18 07:24:40;;;;;;;;;;;;;;;4.45;100.00;101104.25;5113181;28;20385;-69
2023/03/18 07:27:05;;;;;;;;;;;;;;;4.57;100.00;101107.69;5113047;28;19912;-74
2023/03/18 07:29:31;;;;;;;;;;;;;;;4.64;100.00;101104.81;5113158;28;20396;-70
2023/03/18 07:31:57;;;;;;;;;;;;;;;4.76;100.00;101098.78;5112974;28;19916;-71
2023/03/18 07:34:23;;;;;;;;;;;;;;;4.89;100.00;101100.53;5113165;28;19919;-70
2023/03/18 07:36:48;;;;;;;;;;;;;;;4.98;100.00;101102.06;5112973;28;19912;-70
2023/03/18 07:39:13;;;;;;;;;;;;;;;5.01;100.00;101106.53;5089686;28;19912;-72
2023/03/18 07:41:38;;;;;;;;;;;;;;;5.01;100.00;101107.41;5089858;28;20001;-69
2023/03/18 07:44:05;;;;;;;;;;;;;;;5.13;100.00;101116.72;5089762;28;19912;-69
2023/03/18 07:46:30;;;;;;;;;;;;;;;5.18;100.00;101112.78;5089813;28;19923;-70
2023/03/18 07:48:56;;;;;;;;;;;;;;;5.20;99.57;101113.78;5089712;28;19975;-69
2023/03/18 07:51:22;;;;;;;;;;;;;;;5.23;96.35;101124.22;5089870;28;19940;-68
2023/03/18 07:53:49;;;;;;;;;;;;;;;5.30;96.04;101121.31;5089728;28;20014;-71
2023/03/18 07:56:15;;;;;;;;;;;;;;;5.37;97.13;101121.75;5089825;28;19947;-71
2023/03/18 07:58:40;;;;;;;;;;;;;;;5.51;91.81;101127.00;5089731;28;20406;-70
2023/03/18 08:01:06;;;;;;;;;;;;;;;5.55;90.08;101114.44;5089664;28;19958;-71
2023/03/18 08:03:32;;;;;;;;;;;;;;;5.66;90.60;101119.47;5089369;28;19919;-74
2023/03/18 08:05:58;;;;;;;;;;;;;;;5.85;90.41;101118.16;5089535;28;19912;-71
2023/03/18 08:08:23;;;;;;;;;;;;;;;5.87;88.42;101123.38;5089148;28;19920;-71
2023/03/18 08:10:49;;;;;;;;;;;;;;;5.97;89.35;101101.00;5106447;28;19919;-71
2023/03/18 08:13:15;;;;;;;;;;;;;;;6.07;87.27;101106.75;5111232;28;20369;-69
2023/03/18 08:15:40;;;;;;;;;;;;;;;6.09;87.73;101112.88;5112143;28;19912;-71
2023/03/18 08:18:07;;;;;;;;;;;;;;;6.19;86.67;101110.13;5111953;28;19934;-71
2023/03/18 08:20:32;;;;;;;;;;;;;;;6.17;83.17;101114.28;5111739;28;20021;-68
2023/03/18 08:22:57;;;;;;;;;;;;;;;6.23;85.23;101111.22;5112288;28;19946;-71
2023/03/18 08:25:23;;;;;;;;;;;;;;;6.21;84.09;101117.94;5112261;28;19911;-69
2023/03/18 08:27:49;;;;;;;;;;;;;;;6.20;83.64;101114.47;5111985;28;19911;-69
2023/03/18 08:30:15;;;;;;;;;;;;;;;6.25;82.71;101107.97;5110362;28;19912;-69
2023/03/18 08:32:40;;;;;;;;;;;;;;;6.32;83.99;101111.84;5109859;28;19922;-69
2023/03/18 08:35:06;;;;;;;;;;;;;;;6.39;84.56;101113.09;5110741;28;19923;-71
2023/03/18 08:37:32;;;;;;;;;;;;;;;6.58;85.78;101120.28;5110533;28;20014;-70
2023/03/18 08:39:57;;;;;;;;;;;;;;;6.59;81.86;101120.41;5111039;28;19912;-71
2023/03/18 08:42:23;;;;;;;;;;;;;;;6.66;83.30;101121.66;5111205;28;20297;-68
2023/03/18 08:44:49;;;;;;;;;;;;;;;6.61;81.05;101121.38;5110733;28;19919;-68
2023/03/18 08:47:15;;;;;;;;;;;;;;;6.69;83.44;101123.53;5111034;28;19911;-68
2023/03/18 08:49:40;;;;;;;;;;;;;;;6.83;83.60;101129.53;5110528;28;19918;-71
2023/03/18 08:52:05;;;;;;;;;;;;;;;6.86;85.68;101125.47;5110388;28;20010;-70
2023/03/18 08:54:31;;;;;;;;;;;;;;;6.87;84.07;101122.13;5110730;28;19916;-68
2023/03/18 08:56:56;;;;;;;;;;;;;;;6.83;80.93;101124.41;5109477;28;19973;-68
2023/03/18 08:59:22;;;;;;;;;;;;;;;6.76;81.61;101123.13;5109593;28;19915;-70
2023/03/18 09:01:48;;;;;;;;;;;;;;;6.79;83.85;101131.00;5109352;28;19918;-69
2023/03/18 09:04:13;;;;;;;;;;;;;;;6.83;82.71;101130.44;5109001;28;19911;-71
2023/03/18 09:06:39;;;;;;;;;;;;;;;6.86;83.42;101130.63;5110521;28;20331;-67
2023/03/18 09:09:04;;;;;;;;;;;;;;;6.86;80.80;101135.75;5110468;28;19915;-71
2023/03/18 09:11:29;;;;;;;;;;;;;;;6.82;82.30;101138.00;5091500;28;19946;-73
2023/03/18 09:13:55;;;;;;;;;;;;;;;6.82;83.10;101140.59;5111633;28;19907;-70
2023/03/18 09:16:20;;;;;;;;;;;;;;;6.77;81.47;101128.34;5111444;28;19912;-70
2023/03/18 09:18:45;;;;;;;;;;;;;;;6.84;82.91;101137.34;5111203;28;20297;-70
2023/03/18 09:21:11;;;;;;;;;;;;;;;6.88;81.37;101134.19;5111420;28;20049;-71
2023/03/18 09:23:36;;;;;;;;;;;;;;;6.87;81.36;101140.09;5111051;28;20395;-69
2023/03/18 09:26:02;;;;;;;;;;;;;;;6.83;76.75;101134.66;5110874;28;20004;-68
2023/03/18 09:28:27;;;;;;;;;;;;;;;6.75;77.90;101131.63;5111322;28;20008;-73
2023/03/18 09:30:52;;;;;;;;;;;;;;;6.77;77.72;101130.06;5111110;28;20474;-69
2023/03/18 09:33:18;;;;;;;;;;;;;;;6.77;76.32;101132.63;5110866;28;19930;-70
2023/03/18 09:35:43;;;;;;;;;;;;;;;6.73;76.20;101128.97;5110902;28;19915;-69
2023/03/18 09:38:16;;;;;;;;;;;;;;;6.71;75.17;101140.81;5110317;28;19926;-69
2023/03/18 09:40:51;;;;;;;;;;;;;;;6.82;75.35;101132.88;5110965;28;20034;-70
2023/03/18 09:43:31;;;;;;;;;;;;;;;6.85;75.18;101133.97;5114732;28;19912;-70
2023/03/18 09:46:02;;;;;;;;;;;;;;;6.92;76.00;101131.00;5117091;27;19911;-68
2023/03/18 09:48:42;;;;;;;;;;;;;;;6.94;74.88;101132.00;5120763;27;20503;-72
2023/03/18 09:51:16;;;;;;;;;;;;;;;6.97;74.89;101124.47;5120084;27;19922;-71
2023/03/18 09:53:45;;;;;;;;;;;;;;;6.94;73.91;101132.00;5114387;27;20281;-68
2023/03/18 09:56:23;;;;;;;;;;;;;;;6.94;74.05;101125.94;5120115;27;19915;-71
2023/03/18 09:58:53;;;;;;;;;;;;;;;6.97;74.15;101126.16;5121535;27;19912;-68
2023/03/18 10:01:21;;;;;;;;;;;;;;;7.05;73.86;101129.19;5121636;27;20004;-71
2023/03/18 10:03:56;;;;;;;;;;;;;;;7.10;74.25;101132.94;5120509;27;19915;-69
2023/03/18 10:06:23;;;;;;;;;;;;;;;7.19;73.43;101132.59;5123665;27;19915;-71
2023/03/18 10:08:58;;;;;;;;;;;;;;;7.23;73.88;101125.19;5124859;27;19915;-68
2023/03/18 10:11:37;;;;;;;;;;;;;;;7.29;73.27;101122.13;5119229;27;19916;-67
2023/03/18 10:14:05;;;;;;;;;;;;;;;7.31;70.27;101117.94;5114653;28;20021;-68
2023/03/18 10:16:34;;;;;;;;;;;;;;;7.37;70.38;101120.00;5095093;28;20399;-70
2023/03/18 10:18:59;;;;;;;;;;;;;;;7.40;72.48;101112.47;5123853;27;19916;-69
2023/03/18 10:21:31;;;;;;;;;;;;;;;7.51;72.96;101101.16;5123884;27;19948;-69
2023/03/18 10:24:19;;;;;;;;;;;;;;;7.57;68.24;101105.78;5119383;27;19911;-68
2023/03/18 10:26:51;;;;;;;;;;;;;;;7.65;69.79;101098.53;5122856;27;19959;-68
2023/03/18 10:29:22;;;;;;;;;;;;;;;7.71;70.06;101091.16;5126121;27;20376;-71
2023/03/18 10:32:01;;;;;;;;;;;;;;;7.79;71.73;101092.50;5104091;27;19927;-70
2023/03/18 10:34:48;;;;;;;;;;;;;;;7.78;68.15;101094.19;5122923;27;19919;-67
2023/03/18 10:37:17;;;;;;;;;;;;;;;7.92;69.32;101088.97;5122778;27;19922;-68
2023/03/18 10:39:45;;;;;;;;;;;;;;;7.94;65.06;101085.69;5124007;27;20010;-69
2023/03/18 10:42:26;;;;;;;;;;;;;;;8.05;66.44;101077.69;5122662;27;19941;-70
2023/03/18 10:44:54;;;;;;;;;;;;;;;8.05;64.45;101076.00;5124050;27;20377;-72
2023/03/18 10:47:26;;;;;;;;;;;;;;;8.10;64.70;101076.28;5120596;27;19918;-69
2023/03/18 10:50:01;;;;;;;;;;;;;;;8.20;65.38;101075.09;5122920;27;20014;-70
2023/03/18 10:52:34;;;;;;;;;;;;;;;8.37;65.56;101069.22;5122424;27;19918;-70
2023/03/18 10:55:00;;;;;;;;;;;;;;;8.46;63.75;101062.81;5116234;27;19912;-70
2023/03/18 10:57:25;;;;;;;;;;;;;;;8.56;62.56;101059.94;5113751;28;19994;-70
2023/03/18 10:59:51;;;;;;;;;;;;;;;8.57;62.19;101061.72;5113730;28;19912;-67
2023/03/18 11:02:19;;;;;;;;;;;;;;;8.67;61.52;101048.59;5119586;27;19972;-70
2023/03/18 11:04:54;;;;;;;;;;;;;;;8.66;57.80;101048.47;5115841;27;19911;-67
2023/03/18 11:07:26;;;;;;;;;;;;;;;8.71;60.49;101047.03;5080506;27;20393;-70
2023/03/18 11:09:52;;;;;;;;;;;;;;;8.78;58.77;101041.41;5134102;27;19965;-70
2023/03/18 11:12:21;;;;;;;;;;;;;;;8.86;60.28;101045.28;5124126;27;19943;-70
2023/03/18 11:14:48;;;;;;;;;;;;;;;9.06;61.13;101035.16;5129045;27;20025;-69
2023/03/18 11:17:32;;;;;;;;;;;;;;;9.21;59.46;101033.38;5123639;27;19915;-71
2023/03/18 11:20:06;;;;;;;;;;;;;;;9.26;61.79;101027.56;5120744;27;20006;-68
2023/03/18 11:22:33;;;;;;;;;;;;;;;9.32;62.99;101015.88;5122733;27;19923;-66
2023/03/18 11:25:18;;;;;;;;;;;;;;;9.29;61.01;101025.16;5131047;27;19911;-69
2023/03/18 11:27:44;;;;;;;;;;;;;;;9.16;58.73;101029.69;5133598;27;19903;-70
2023/03/18 11:30:22;;;;;;;;;;;;;;;9.29;61.20;101027.72;5133177;27;20357;-70
2023/03/18 11:32:51;;;;;;;;;;;;;;;9.19;61.45;101029.81;5133696;27;19912;-70
2023/03/18 11:35:22;;;;;;;;;;;;;;;8.96;58.54;101027.75;5101124;27;19923;-68
2023/03/18 11:37:49;;;;;;;;;;;;;;;8.99;60.84;101026.22;5110832;28;19918;-68
2023/03/18 11:40:28;;;;;;;;;;;;;;;9.13;59.66;101023.47;5110954;28;19908;-68
2023/03/18 11:43:15;;;;;;;;;;;;;;;9.16;60.22;101015.88;5089970;28;19912;-70
2023/03/18 11:45:55;;;;;;;;;;;;;;;9.68;59.13;101022.78;5090406;28;19908;-69
2023/03/18 11:48:20;;;;;;;;;;;;;;;9.82;56.25;101016.63;5090224;28;19912;-69
2023/03/18 11:51:06;;;;;;;;;;;;;;;10.03;55.50;101008.13;5090223;28;19961;-67
2023/03/18 11:53:46;;;;;;;;;;;;;;;10.43;56.52;101004.00;5049928;28;19913;-71
2023/03/18 11:56:27;;;;;;;;;;;;;;;10.34;53.05;101001.84;5049776;28;19927;-68
2023/03/18 11:58:53;;;;;;;;;;;;;;;10.25;51.56;100994.56;5033141;28;19916;-70
2023/03/18 12:01:29;;;;;;;;;;;;;;;10.22;52.47;100990.97;5032856;28;20002;-68
2023/03/18 12:04:04;;;;;;;;;;;;;;;10.37;49.72;100989.13;5049617;28;19912;-67
2023/03/18 12:06:31;;;;;;;;;;;;;;;10.03;49.91;100992.66;5038304;28;20288;-67
2023/03/18 12:09:09;;;;;;;;;;;;;;;9.96;52.02;100985.47;5029497;28;19967;-67
2023/03/18 12:11:34;;;;;;;;;;;;;;;9.88;49.86;100983.41;5030123;28;20041;-68
2023/03/18 12:14:08;;;;;;;;;;;;;;;10.17;48.95;100981.31;5029508;28;20342;-70
2023/03/18 12:16:39;;;;;;;;;;;;;;;10.30;48.93;100972.44;5029154;28;20055;-69
2023/03/18 12:19:07;;;;;;;;;;;;;;;10.49;49.63;100973.31;5029601;28;19968;-68
2023/03/18 12:21:51;;;;;;;;;;;;;;;10.37;48.10;100973.66;5029435;28;20002;-67
2023/03/18 12:24:31;;;;;;;;;;;;;;;10.64;49.29;100967.94;5029417;28;19920;-69
2023/03/18 12:27:00;;;;;;;;;;;;;;;10.69;47.17;100969.03;5029592;28;19913;-70
2023/03/18 12:29:40;;;;;;;;;;;;;;;10.59;45.89;100975.53;5029452;28;20387;-71
2023/03/18 12:32:05;;;;;;;;;;;;;;;10.73;45.96;100973.53;5112256;28;19919;-69
2023/03/18 12:34:31;;;;;;;;;;;;;;;11.02;49.41;100958.44;5111869;28;19912;-70
2023/03/18 12:37:16;;;;;;;;;;;;;;;10.83;45.15;100962.78;5112380;28;20369;-70
2023/03/18 12:39:51;;;;;;;;;;;;;;;10.87;45.65;100943.16;5111527;28;19912;-70